createdAt,value
2023-03-29T00:01:34.855Z,144.17
2023-03-29T00:04:42.496Z,141.22
2023-03-29T00:07:54.585Z,146.81
2023-03-29T00:11:04.093Z,169.91
2023-03-29T00:14:11.723Z,178.83
2023-03-29T00:17:17.879Z,201.24
2023-03-29T00:20:24.772Z,203.86
2023-03-29T00:23:31.025Z,219.49
2023-03-29T00:26:40.449Z,223.97
2023-03-29T00:29:46.582Z,222.40
2023-03-29T00:32:53.701Z,230.68
2023-03-29T00:35:59.804Z,257.43
2023-03-29T00:39:06.930Z,328.67
2023-03-29T00:42:20.463Z,318.02
2023-03-29T00:45:36.279Z,325.79
2023-03-29T00:48:42.356Z,301.89
2023-03-29T00:51:50.322Z,330.24
2023-03-29T00:55:02.892Z,301.82
2023-03-29T00:58:19.928Z,281.00
2023-03-29T01:01:35.817Z,288.75
2023-03-29T01:04:50.713Z,319.97
2023-03-29T01:08:07.049Z,300.24
2023-03-29T01:11:22.528Z,306.62
2023-03-29T01:14:42.097Z,324.82
2023-03-29T01:17:52.037Z,356.76
2023-03-29T01:21:24.333Z,366.15
2023-03-29T01:25:02.849Z,354.96
2023-03-29T01:28:22.648Z,348.99
2023-03-29T01:31:36.174Z,359.81
2023-03-29T01:34:55.054Z,350.57
2023-03-29T01:38:11.766Z,387.27
2023-03-29T01:41:18.185Z,369.47
2023-03-29T01:44:45.681Z,339.56
2023-03-29T01:48:05.708Z,302.15
2023-03-29T01:51:21.621Z,299.86
2023-03-29T01:54:38.881Z,304.45
2023-03-29T01:57:50.429Z,314.13
2023-03-29T02:01:05.972Z,305.64
2023-03-29T02:04:20.087Z,308.71
2023-03-29T02:07:37.644Z,310.73
2023-03-29T02:10:45.612Z,307.57
2023-03-29T02:13:51.877Z,299.58
2023-03-29T02:17:19.384Z,290.35
2023-03-29T02:20:37.236Z,283.93
2023-03-29T02:23:49.686Z,281.22
2023-03-29T02:26:56.130Z,283.71
2023-03-29T02:30:08.851Z,277.95
2023-03-29T02:33:26.040Z,283.17
2023-03-29T02:36:43.630Z,275.58
2023-03-29T02:39:54.706Z,284.23
2023-03-29T02:43:04.551Z,284.68
2023-03-29T02:46:13.980Z,287.22
2023-03-29T02:49:23.929Z,283.12
2023-03-29T02:52:39.600Z,280.23
2023-03-29T02:55:47.225Z,277.23
2023-03-29T02:58:53.312Z,286.42
2023-03-29T03:02:00.515Z,298.04
2023-03-29T03:05:11.758Z,297.36
2023-03-29T03:08:19.057Z,297.11
2023-03-29T03:11:26.289Z,304.51
2023-03-29T03:14:33.126Z,293.03
2023-03-29T03:17:41.297Z,300.10
2023-03-29T03:20:59.586Z,330.54
2023-03-29T03:24:10.457Z,339.88
2023-03-29T03:27:19.239Z,343.26
2023-03-29T03:30:25.983Z,380.54
2023-03-29T03:33:51.556Z,402.83
2023-03-29T03:37:29.547Z,425.45
2023-03-29T03:40:36.552Z,432.29
2023-03-29T03:43:46.336Z,425.94
2023-03-29T03:47:00.382Z,441.69
2023-03-29T03:50:15.815Z,434.96
2023-03-29T03:53:27.541Z,420.76
2023-03-29T03:56:53.856Z,405.58
2023-03-29T04:00:19.558Z,406.80
2023-03-29T04:03:39.393Z,417.73
2023-03-29T04:06:48.569Z,455.18
2023-03-29T04:10:16.804Z,515.47
2023-03-29T04:13:31.773Z,603.64
2023-03-29T04:16:51.469Z,684.14
2023-03-29T04:20:24.726Z,703.72
2023-03-29T04:23:39.182Z,768.02
2023-03-29T04:26:50.279Z,836.00
2023-03-29T04:30:05.186Z,961.04
2023-03-29T04:33:32.433Z,1199.21
2023-03-29T04:36:40.617Z,1135.18
2023-03-29T04:39:55.763Z,1041.86
2023-03-29T04:43:05.018Z,777.27
2023-03-29T04:46:13.477Z,608.85
2023-03-29T04:49:40.323Z,535.12
2023-03-29T04:52:52.395Z,452.60
2023-03-29T04:55:59.801Z,402.03
2023-03-29T04:59:35.417Z,378.60
2023-03-29T05:02:48.527Z,343.08
2023-03-29T05:06:15.463Z,338.53
2023-03-29T05:09:28.389Z,312.81
2023-03-29T05:12:41.746Z,281.13
2023-03-29T05:15:50.540Z,281.81
2023-03-29T05:18:57.450Z,269.33
2023-03-29T05:22:05.188Z,268.21
2023-03-29T05:25:14.463Z,271.40
2023-03-29T05:28:23.617Z,286.07
2023-03-29T05:31:33.130Z,253.43
2023-03-29T05:34:39.608Z,238.53
2023-03-29T05:37:47.644Z,207.71
2023-03-29T05:40:56.684Z,193.94
2023-03-29T05:44:10.927Z,185.56
2023-03-29T05:47:24.113Z,180.19
2023-03-29T05:50:32.313Z,199.10
2023-03-29T05:53:41.520Z,194.69
2023-03-29T05:56:48.495Z,197.53
2023-03-29T05:59:58.944Z,189.78
2023-03-29T06:03:19.922Z,201.26
2023-03-29T06:06:27.007Z,230.16
2023-03-29T06:09:34.243Z,236.39
2023-03-29T06:12:43.324Z,240.25
2023-03-29T06:15:50.317Z,234.32
2023-03-29T06:19:08.441Z,246.09
2023-03-29T06:22:17.506Z,267.72
2023-03-29T06:25:23.655Z,228.25
2023-03-29T06:28:31.234Z,190.22
2023-03-29T06:31:39.062Z,189.34
2023-03-29T06:34:51.189Z,192.84
2023-03-29T06:38:25.144Z,217.23
2023-03-29T06:41:50.555Z,208.43
2023-03-29T06:45:41.822Z,226.53
2023-03-29T06:48:58.879Z,232.35
2023-03-29T06:52:29.369Z,209.64
2023-03-29T06:55:36.406Z,211.78
2023-03-29T06:59:08.807Z,198.72
2023-03-29T07:02:23.492Z,204.77
2023-03-29T07:05:41.060Z,165.11
2023-03-29T07:09:00.129Z,138.14
2023-03-29T07:12:25.400Z,119.60
2023-03-29T07:15:37.070Z,118.97
2023-03-29T07:18:59.220Z,118.22
2023-03-29T07:22:49.461Z,120.35
2023-03-29T07:25:58.555Z,124.35
2023-03-29T07:29:13.560Z,104.34
2023-03-29T07:32:19.648Z,105.21
2023-03-29T07:35:36.461Z,103.75
2023-03-29T07:38:49.462Z,84.39
2023-03-29T07:42:10.323Z,91.77
2023-03-29T07:45:26.900Z,90.84
2023-03-29T07:48:46.477Z,84.31
2023-03-29T07:51:54.329Z,79.58
2023-03-29T07:55:02.542Z,83.41
2023-03-29T07:58:36.187Z,98.46
2023-03-29T08:01:50.436Z,116.60
2023-03-29T08:05:29.165Z,114.09
2023-03-29T08:08:50.477Z,122.40
2023-03-29T08:11:57.887Z,127.97
2023-03-29T08:15:19.750Z,130.25
2023-03-29T08:18:26.569Z,115.24
2023-03-29T08:21:33.791Z,110.83
2023-03-29T08:24:42.806Z,129.20
2023-03-29T08:27:50.115Z,116.70
2023-03-29T08:31:11.435Z,117.92
2023-03-29T08:34:21.703Z,117.67
2023-03-29T08:37:39.534Z,128.31
2023-03-29T08:40:46.977Z,118.96
2023-03-29T08:44:20.889Z,95.56
2023-03-29T08:47:55.558Z,92.44
2023-03-29T08:51:09.945Z,99.80
2023-03-29T08:54:29.020Z,92.60
2023-03-29T08:58:11.469Z,94.79
2023-03-29T09:01:19.128Z,104.72
2023-03-29T09:04:42.817Z,116.09
2023-03-29T09:08:02.167Z,87.24
2023-03-29T09:11:42.149Z,84.18
2023-03-29T09:15:15.628Z,61.65
2023-03-29T09:18:51.858Z,55.18
2023-03-29T09:22:22.757Z,51.56
2023-03-29T09:25:53.446Z,60.22
2023-03-29T09:29:36.646Z,54.11
2023-03-29T09:32:56.247Z,67.55
2023-03-29T09:36:21.840Z,70.92
2023-03-29T09:39:36.523Z,69.88
2023-03-29T09:42:57.737Z,66.37
2023-03-29T09:46:16.420Z,56.58
2023-03-29T09:49:34.689Z,53.42
2023-03-29T09:52:41.238Z,48.94
2023-03-29T09:55:59.463Z,48.08
2023-03-29T09:59:16.325Z,61.36
2023-03-29T10:02:28.286Z,67.68
2023-03-29T10:05:40.354Z,50.86
2023-03-29T10:09:01.766Z,40.66
2023-03-29T10:12:20.818Z,46.20
2023-03-29T10:15:33.154Z,49.45
2023-03-29T10:18:47.544Z,51.31
2023-03-29T10:21:55.921Z,61.62
2023-03-29T10:25:02.481Z,53.83
2023-03-29T10:28:21.405Z,46.05
2023-03-29T10:31:31.690Z,53.03
2023-03-29T10:34:39.393Z,54.35
2023-03-29T10:37:52.338Z,44.76
2023-03-29T10:41:09.459Z,63.19
2023-03-29T10:44:36.055Z,77.83
2023-03-29T10:47:51.489Z,126.65
2023-03-29T10:51:03.724Z,65.86
2023-03-29T10:54:20.730Z,56.39
2023-03-29T10:57:44.403Z,52.26
2023-03-29T11:01:00.179Z,59.61
2023-03-29T11:04:32.435Z,55.78
2023-03-29T11:07:59.461Z,55.79
2023-03-29T11:11:32.140Z,51.43
2023-03-29T11:15:03.860Z,47.12
2023-03-29T11:18:52.305Z,53.68
2023-03-29T11:22:16.914Z,52.61
2023-03-29T11:25:44.006Z,52.66
2023-03-29T11:29:01.035Z,65.54
2023-03-29T11:32:29.323Z,65.15
2023-03-29T11:35:52.235Z,47.30
2023-03-29T11:39:19.549Z,53.76
2023-03-29T11:42:47.858Z,42.58
2023-03-29T11:46:03.457Z,44.91
2023-03-29T11:49:28.565Z,42.32
2023-03-29T11:52:53.755Z,48.21
2023-03-29T11:56:16.682Z,46.56
2023-03-29T11:59:36.076Z,47.60
2023-03-29T12:02:53.206Z,45.47
2023-03-29T12:06:10.058Z,39.72
2023-03-29T12:09:34.828Z,42.37
2023-03-29T12:12:53.160Z,45.25
2023-03-29T12:16:14.637Z,44.95
2023-03-29T12:19:32.031Z,49.02
2023-03-29T12:22:41.707Z,66.38
2023-03-29T12:26:07.018Z,45.91
2023-03-29T12:29:48.760Z,48.52
2023-03-29T12:33:27.877Z,48.09
2023-03-29T12:37:12.253Z,52.35
2023-03-29T12:40:46.754Z,44.14
2023-03-29T12:44:23.762Z,46.26
2023-03-29T12:47:44.436Z,61.04
2023-03-29T12:51:01.132Z,67.82
2023-03-29T12:54:16.455Z,60.63
2023-03-29T12:57:30.175Z,49.64
2023-03-29T13:00:50.680Z,43.41
2023-03-29T13:04:17.217Z,39.55
2023-03-29T13:07:36.857Z,42.40
2023-03-29T13:10:46.031Z,39.47
2023-03-29T13:13:55.818Z,40.94
2023-03-29T13:17:18.487Z,46.36
2023-03-29T13:20:48.506Z,46.03
2023-03-29T13:24:14.058Z,44.44
2023-03-29T13:27:39.992Z,46.41
2023-03-29T13:31:02.928Z,54.44
2023-03-29T13:34:35.002Z,58.29
2023-03-29T13:38:01.082Z,50.03
2023-03-29T13:41:10.141Z,44.52
2023-03-29T13:44:44.717Z,41.92
2023-03-29T13:48:04.238Z,43.09
2023-03-29T13:51:36.628Z,43.45
2023-03-29T13:54:53.225Z,46.42
2023-03-29T13:58:07.603Z,52.76
2023-03-29T14:01:28.450Z,42.30
2023-03-29T14:04:47.515Z,50.69
2023-03-29T14:07:58.953Z,42.50
2023-03-29T14:11:11.349Z,39.11
2023-03-29T14:14:18.347Z,39.59
2023-03-29T14:17:28.005Z,37.46
2023-03-29T14:20:37.997Z,46.75
2023-03-29T14:24:08.451Z,48.67
2023-03-29T14:27:16.525Z,103.39
2023-03-29T14:30:30.934Z,74.00
2023-03-29T14:33:38.406Z,53.01
2023-03-29T14:36:49.368Z,42.26
2023-03-29T14:39:59.757Z,48.44
2023-03-29T14:43:17.683Z,53.36
2023-03-29T14:46:25.996Z,61.52
2023-03-29T14:49:35.067Z,61.46
2023-03-29T14:52:41.696Z,73.96
2023-03-29T14:56:01.945Z,75.26
2023-03-29T14:59:38.454Z,67.70
2023-03-29T15:02:53.660Z,75.80
2023-03-29T15:06:11.547Z,114.87
2023-03-29T15:09:31.199Z,127.51
2023-03-29T15:12:46.743Z,101.61
2023-03-29T15:16:00.343Z,67.58
2023-03-29T15:19:09.619Z,88.38
2023-03-29T15:22:16.471Z,108.43
2023-03-29T15:25:24.522Z,69.12
2023-03-29T15:28:36.842Z,78.84
2023-03-29T15:31:46.523Z,61.15
2023-03-29T15:35:05.242Z,66.40
2023-03-29T15:38:15.626Z,77.35
2023-03-29T15:41:23.473Z,63.38
2023-03-29T15:44:37.496Z,63.42
2023-03-29T15:47:45.470Z,59.25
2023-03-29T15:50:53.450Z,57.87
2023-03-29T15:54:03.940Z,86.94
2023-03-29T15:57:24.199Z,71.04
2023-03-29T16:00:34.176Z,65.62
2023-03-29T16:03:40.510Z,77.68
2023-03-29T16:07:06.734Z,83.40
2023-03-29T16:10:13.679Z,72.38
2023-03-29T16:13:20.668Z,94.68
2023-03-29T16:16:36.112Z,163.52
2023-03-29T16:19:42.980Z,115.33
2023-03-29T16:22:50.373Z,106.24
2023-03-29T16:25:59.367Z,145.28
2023-03-29T16:29:05.444Z,194.60
2023-03-29T16:32:15.667Z,187.28
2023-03-29T16:35:29.819Z,215.17
2023-03-29T16:38:36.824Z,237.60
2023-03-29T16:41:45.553Z,179.74
2023-03-29T16:44:52.575Z,216.14
2023-03-29T16:48:02.041Z,327.35
2023-03-29T16:51:10.303Z,298.92
2023-03-29T16:54:26.036Z,452.47
2023-03-29T16:57:38.100Z,409.25
2023-03-29T17:00:47.965Z,291.97
2023-03-29T17:03:58.139Z,161.32
2023-03-29T17:07:08.433Z,129.60
2023-03-29T17:10:16.805Z,138.52
2023-03-29T17:13:30.004Z,200.64
2023-03-29T17:16:36.994Z,221.63
2023-03-29T17:19:45.958Z,198.08
2023-03-29T17:22:59.875Z,193.00
2023-03-29T17:26:10.116Z,160.24
2023-03-29T17:29:27.390Z,125.24
2023-03-29T17:32:33.562Z,144.25
2023-03-29T17:35:45.487Z,157.71
2023-03-29T17:38:51.555Z,143.86
2023-03-29T17:42:04.641Z,133.14
2023-03-29T17:45:13.371Z,127.10
2023-03-29T17:48:20.499Z,148.73
2023-03-29T17:51:37.372Z,194.08
2023-03-29T17:54:50.708Z,138.58
2023-03-29T17:57:57.589Z,147.26
2023-03-29T18:01:14.996Z,152.57
2023-03-29T18:04:21.490Z,173.34
2023-03-29T18:07:31.135Z,202.25
2023-03-29T18:10:37.264Z,209.62
2023-03-29T18:13:44.508Z,209.60
2023-03-29T18:16:50.784Z,223.71
2023-03-29T18:20:21.042Z,202.98
2023-03-29T18:23:34.076Z,195.27
2023-03-29T18:26:43.265Z,192.48
2023-03-29T18:29:49.403Z,168.13
2023-03-29T18:32:56.320Z,152.55
2023-03-29T18:36:03.083Z,186.33
2023-03-29T18:39:14.506Z,197.68
2023-03-29T18:42:22.135Z,176.91
2023-03-29T18:45:29.049Z,140.86
2023-03-29T18:48:42.259Z,125.39
2023-03-29T18:51:50.329Z,147.69
2023-03-29T18:54:59.065Z,188.57
2023-03-29T18:58:25.851Z,191.55
2023-03-29T19:01:31.929Z,180.09
2023-03-29T19:04:38.854Z,187.73
2023-03-29T19:07:44.986Z,189.79
2023-03-29T19:10:54.614Z,206.51
2023-03-29T19:14:00.953Z,208.74
2023-03-29T19:17:11.010Z,229.35
2023-03-29T19:20:18.020Z,399.97
2023-03-29T19:23:30.750Z,356.03
2023-03-29T19:26:39.572Z,348.86
2023-03-29T19:29:46.589Z,398.88
2023-03-29T19:32:53.668Z,446.14
2023-03-29T19:36:08.599Z,447.78
2023-03-29T19:39:15.105Z,432.58
2023-03-29T19:42:24.748Z,418.79
2023-03-29T19:45:31.328Z,394.99
2023-03-29T19:48:38.472Z,352.75
2023-03-29T19:51:44.794Z,310.81
2023-03-29T19:54:51.747Z,313.31
2023-03-29T19:58:09.346Z,305.27
2023-03-29T20:01:21.048Z,253.63
2023-03-29T20:04:36.227Z,302.02
2023-03-29T20:07:43.178Z,303.87
2023-03-29T20:10:49.254Z,332.11
2023-03-29T20:13:58.791Z,329.79
2023-03-29T20:17:11.597Z,328.57
2023-03-29T20:20:19.566Z,328.79
2023-03-29T20:23:25.666Z,317.88
2023-03-29T20:26:32.582Z,364.53
2023-03-29T20:29:44.194Z,384.48
2023-03-29T20:32:53.332Z,386.68
2023-03-29T20:35:59.428Z,389.46
2023-03-29T20:39:08.238Z,292.84
2023-03-29T20:42:20.752Z,251.42
2023-03-29T20:45:51.611Z,224.27
2023-03-29T20:48:58.638Z,213.58
2023-03-29T20:52:06.487Z,221.69
2023-03-29T20:55:19.586Z,222.08
2023-03-29T20:58:31.081Z,245.92
2023-03-29T21:01:41.342Z,268.34
2023-03-29T21:04:52.990Z,271.55
2023-03-29T21:08:01.189Z,288.67
2023-03-29T21:11:21.663Z,322.43
2023-03-29T21:14:32.430Z,347.49
2023-03-29T21:17:51.404Z,349.04
2023-03-29T21:20:59.828Z,333.72
2023-03-29T21:24:13.761Z,359.69
2023-03-29T21:27:19.981Z,338.01
2023-03-29T21:30:27.360Z,318.60
2023-03-29T21:33:38.625Z,293.47
2023-03-29T21:36:45.600Z,259.18
2023-03-29T21:39:51.824Z,231.99
2023-03-29T21:42:58.738Z,253.01
2023-03-29T21:46:04.729Z,261.67
2023-03-29T21:49:14.709Z,257.62
2023-03-29T21:52:21.877Z,268.98
2023-03-29T21:55:28.671Z,255.29
2023-03-29T21:58:34.765Z,272.83
2023-03-29T22:01:51.988Z,279.77
2023-03-29T22:05:00.772Z,298.26
2023-03-29T22:08:10.627Z,303.20
2023-03-29T22:11:19.539Z,303.80
2023-03-29T22:14:26.482Z,275.15
2023-03-29T22:17:32.507Z,233.96
2023-03-29T22:20:42.472Z,212.46
2023-03-29T22:23:52.586Z,229.38
2023-03-29T22:26:59.517Z,253.43
2023-03-29T22:30:06.140Z,225.24
2023-03-29T22:33:13.023Z,208.44
2023-03-29T22:36:25.461Z,161.74
2023-03-29T22:39:32.982Z,134.22
2023-03-29T22:42:45.286Z,123.70
2023-03-29T22:45:52.356Z,116.37
2023-03-29T22:48:59.101Z,110.12
2023-03-29T22:52:10.777Z,107.94
2023-03-29T22:55:17.074Z,101.84
2023-03-29T22:58:32.160Z,106.08
2023-03-29T23:01:38.272Z,101.31
2023-03-29T23:04:49.942Z,89.10
2023-03-29T23:07:58.865Z,95.91
2023-03-29T23:11:07.589Z,94.86
2023-03-29T23:14:15.169Z,92.35
2023-03-29T23:17:22.860Z,91.33
2023-03-29T23:20:29.398Z,84.84
2023-03-29T23:23:39.136Z,82.94
2023-03-29T23:26:45.838Z,83.83
2023-03-29T23:29:52.715Z,81.03
2023-03-29T23:33:00.413Z,76.31
2023-03-29T23:36:11.374Z,77.71
2023-03-29T23:39:25.883Z,77.74
2023-03-29T23:42:33.287Z,75.50
2023-03-29T23:45:40.995Z,77.93
2023-03-29T23:48:49.678Z,74.45
2023-03-29T23:51:56.329Z,75.60
2023-03-29T23:55:11.457Z,76.55
2023-03-29T23:58:19.370Z,73.29
